Time;durP1;ratioP1;P1;durP2;ratioP2;P2;SDS_P1;SDS_P2;PMS_P1;PMS_P2;Temp;Humidity;BMP_temperature;BMP_pressure;BME280_temperature;BME280_humidity;BME280_pressure;Samples;Min_cycle;Max_cycle;Signal;HPM_P1;HPM_P2
2021/07/11 00:01:08;;;;;;;26.42;22.75;;;;;;;18.02;93.09;101035.47;4939939;28;20047;-81
2021/07/11 00:03:33;;;;;;;28.55;24.10;;;;;;;18.08;92.14;101039.22;4962302;28;20086;-84
2021/07/11 00:05:59;;;;;;;28.40;22.98;;;;;;;18.08;91.28;101025.66;4966464;28;20051;-81
2021/07/11 00:08:24;;;;;;;28.20;23.42;;;;;;;18.12;92.05;101021.47;4932203;28;20126;-84
2021/07/11 00:10:49;;;;;;;26.77;23.13;;;;;;;18.12;92.68;101018.75;4946895;29;20046;-82
2021/07/11 00:13:15;;;;;;;28.02;24.02;;;;;;;18.10;92.65;101023.56;4943416;28;20109;-82
2021/07/11 00:15:40;;;;;;;28.27;23.98;;;;;;;18.11;91.29;101023.34;4966516;28;20038;-84
2021/07/11 00:18:06;;;;;;;29.52;23.95;;;;;;;18.16;91.93;101025.44;4950642;28;20062;-83
2021/07/11 00:20:31;;;;;;;28.42;24.27;;;;;;;18.16;91.02;101023.56;4966595;28;20047;-85
2021/07/11 00:22:57;;;;;;;26.73;22.70;;;;;;;18.14;91.20;101017.50;4946815;28;20151;-82
2021/07/11 00:25:23;;;;;;;32.58;25.05;;;;;;;18.15;91.36;101023.75;4962634;28;20123;-85
2021/07/11 00:27:49;;;;;;;28.92;24.00;;;;;;;18.11;92.58;101023.34;4967858;28;20038;-81
2021/07/11 00:30:16;;;;;;;30.85;25.45;;;;;;;18.10;91.58;101021.69;4967388;28;20479;-84
2021/07/11 00:32:43;;;;;;;28.90;24.40;;;;;;;18.13;91.31;101015.00;4947827;28;20058;-83
2021/07/11 00:35:09;;;;;;;28.52;24.50;;;;;;;18.08;91.85;101012.91;4958619;28;20306;-81
2021/07/11 00:37:35;;;;;;;29.85;23.75;;;;;;;18.06;91.83;101009.53;4963217;28;20490;-82
2021/07/11 00:40:02;;;;;;;29.27;24.50;;;;;;;18.07;92.19;101016.66;4967390;28;20069;-81
2021/07/11 00:42:28;;;;;;;31.23;26.02;;;;;;;18.06;92.11;101014.97;4966754;28;20043;-81
2021/07/11 00:44:53;;;;;;;30.17;25.63;;;;;;;18.08;91.61;101012.91;4965734;28;20063;-81
2021/07/11 00:47:18;;;;;;;31.13;25.67;;;;;;;18.08;91.24;101018.31;4950117;28;20050;-82
2021/07/11 00:49:44;;;;;;;31.52;26.05;;;;;;;18.03;92.58;101016.22;4967320;28;20042;-82
2021/07/11 00:52:10;;;;;;;29.70;25.52;;;;;;;18.01;92.88;101022.91;4966773;28;20043;-83
2021/07/11 00:54:36;;;;;;;31.27;27.17;;;;;;;18.04;93.28;101017.09;4950985;28;20481;-83
2021/07/11 00:57:02;;;;;;;33.17;26.90;;;;;;;18.07;92.23;101015.81;4944255;28;20047;-81
2021/07/11 00:59:27;;;;;;;32.53;25.88;;;;;;;18.06;92.43;101014.16;4940701;29;20043;-84
2021/07/11 01:02:10;;;;;;;33.13;26.17;;;;;;;18.06;92.10;101025.00;4961669;28;20078;-84
2021/07/11 01:04:58;;;;;;;33.85;26.08;;;;;;;18.02;92.59;101033.56;4940454;29;20469;-84
2021/07/11 01:07:33;;;;;;;31.00;25.27;;;;;;;18.00;92.89;101043.78;4940370;28;20042;-83
2021/07/11 01:10:06;;;;;;;30.42;25.35;;;;;;;18.14;92.44;101049.25;4948119;28;20070;-84
2021/07/11 01:12:35;;;;;;;31.80;25.90;;;;;;;18.07;92.89;101038.41;4944554;28;20214;-82
2021/07/11 01:15:02;;;;;;;30.40;26.23;;;;;;;18.07;92.77;101042.97;4944707;28;20048;-83
2021/07/11 01:17:29;;;;;;;33.25;26.13;;;;;;;18.09;93.32;101040.88;4949896;28;20046;-83
2021/07/11 01:19:57;;;;;;;35.55;27.30;;;;;;;18.15;93.32;101051.75;4966528;28;20143;-81
2021/07/11 01:22:28;;;;;;;35.30;27.42;;;;;;;18.10;94.17;101048.00;4949616;28;20228;-81
2021/07/11 01:25:00;;;;;;;33.75;27.10;;;;;;;18.01;95.42;101041.91;4965033;28;20062;-82
2021/07/11 01:27:27;;;;;;;37.30;28.55;;;;;;;18.01;95.39;101055.50;4949642;28;20042;-82
2021/07/11 01:29:54;;;;;;;34.25;28.65;;;;;;;17.94;96.38;101050.06;4945934;29;20035;-82
2021/07/11 01:32:19;;;;;;;33.83;28.05;;;;;;;17.93;96.25;101048.41;4942957;28;20054;-81
2021/07/11 01:34:45;;;;;;;38.63;30.40;;;;;;;17.86;98.02;101042.09;4947673;28;20051;-83
2021/07/11 01:37:11;;;;;;;39.08;30.50;;;;;;;17.78;98.56;101040.44;4958854;28;20047;-83
2021/07/11 01:39:38;;;;;;;40.47;31.58;;;;;;;17.80;98.34;101043.75;4949398;28;20400;-83
2021/07/11 01:42:04;;;;;;;44.08;34.10;;;;;;;17.88;98.30;101041.91;4948958;28;20043;-80
2021/07/11 01:44:30;;;;;;;39.83;33.78;;;;;;;17.84;97.97;101037.91;4945195;29;20039;-80
2021/07/11 01:46:56;;;;;;;48.60;36.15;;;;;;;17.78;99.44;101040.44;4938124;28;20051;-81
2021/07/11 01:49:22;;;;;;;45.58;34.17;;;;;;;17.70;100.00;101037.03;4966732;28;20063;-82
2021/07/11 01:51:48;;;;;;;45.28;34.90;;;;;;;17.60;100.00;101051.00;4966516;28;20055;-82
2021/07/11 01:54:14;;;;;;;48.10;34.42;;;;;;;17.54;100.00;101055.34;4946905;28;20496;-83
2021/07/11 01:56:40;;;;;;;47.78;36.95;;;;;;;17.62;100.00;101050.81;4966452;28;20570;-80
2021/07/11 01:59:10;;;;;;;51.60;39.42;;;;;;;17.63;100.00;101042.44;4963837;28;20183;-80
2021/07/11 02:01:35;;;;;;;48.50;38.70;;;;;;;17.60;100.00;101045.56;4959545;28;20069;-80
2021/07/11 02:04:02;;;;;;;54.13;41.03;;;;;;;17.62;100.00;101039.94;4929218;29;20507;-79
2021/07/11 02:06:27;;;;;;;51.90;40.28;;;;;;;17.57;100.00;101043.25;4945213;28;20495;-81
2021/07/11 02:08:53;;;;;;;51.17;41.30;;;;;;;17.56;100.00;101041.59;4919295;28;20062;-80
2021/07/11 02:11:21;;;;;;;53.78;43.22;;;;;;;17.54;100.00;101044.50;4935396;28;20048;-81
2021/07/11 02:13:50;;;;;;;59.63;45.13;;;;;;;17.56;100.00;101055.16;4931381;28;20070;-80
2021/07/11 02:16:38;;;;;;;61.15;46.25;;;;;;;17.49;100.00;101047.00;4934431;28;20412;-81
2021/07/11 02:19:04;;;;;;;63.65;47.10;;;;;;;17.44;100.00;101048.66;4930902;28;20379;-81
2021/07/11 02:21:30;;;;;;;65.85;46.78;;;;;;;17.43;100.00;101046.97;4931663;28;20040;-81
2021/07/11 02:23:58;;;;;;;64.25;48.20;;;;;;;17.45;100.00;101034.03;4932362;28;20042;-80
2021/07/11 02:26:25;;;;;;;64.03;47.42;;;;;;;17.43;100.00;101028.81;4937408;28;20055;-80
2021/07/11 02:28:51;;;;;;;66.05;49.50;;;;;;;17.40;100.00;101033.81;4936619;28;20126;-80
2021/07/11 02:31:18;;;;;;;66.55;49.45;;;;;;;17.36;100.00;101036.09;4909497;29;20516;-79
2021/07/11 02:33:45;;;;;;;67.88;50.92;;;;;;;17.34;100.00;101043.59;4930185;28;20066;-80
2021/07/11 02:36:17;;;;;;;69.72;50.30;;;;;;;17.30;100.00;101040.47;4926545;28;20468;-80
2021/07/11 02:38:51;;;;;;;70.43;53.08;;;;;;;17.22;100.00;101043.34;4915263;28;20067;-79
2021/07/11 02:41:19;;;;;;;71.68;51.53;;;;;;;17.15;100.00;101039.78;4923814;28;20066;-81
2021/07/11 02:43:46;;;;;;;75.60;53.25;;;;;;;17.17;100.00;101043.09;4954606;28;20054;-78
2021/07/11 02:46:17;;;;;;;73.03;50.88;;;;;;;17.15;100.00;101042.50;4958225;28;20492;-79
2021/07/11 02:48:44;;;;;;;74.63;53.58;;;;;;;17.21;100.00;101048.97;4937051;28;20111;-81
2021/07/11 02:51:14;;;;;;;75.40;51.42;;;;;;;17.16;100.00;101057.72;4956819;28;20117;-80
2021/07/11 02:53:43;;;;;;;73.53;52.25;;;;;;;17.17;100.00;101056.66;4934719;28;20047;-80
2021/07/11 02:56:10;;;;;;;79.80;55.45;;;;;;;17.22;100.00;101065.03;4938363;28;20137;-80
2021/07/11 02:58:37;;;;;;;72.30;50.65;;;;;;;17.14;100.00;101065.19;4956101;28;20066;-80
2021/07/11 03:01:03;;;;;;;69.80;51.42;;;;;;;17.10;100.00;101064.78;4951064;28;20035;-80
2021/07/11 03:03:29;;;;;;;68.60;50.22;;;;;;;17.10;100.00;101063.94;4941379;28;20058;-82
2021/07/11 03:05:55;;;;;;;72.53;51.85;;;;;;;17.19;100.00;101075.47;4957444;28;20038;-80
2021/07/11 03:08:20;;;;;;;76.20;48.90;;;;;;;17.09;100.00;101076.66;4956657;28;20130;-81
2021/07/11 03:10:47;;;;;;;70.72;48.95;;;;;;;17.07;100.00;101069.75;4957556;28;20057;-82
2021/07/11 03:13:13;;;;;;;65.90;47.83;;;;;;;17.08;100.00;101076.84;4956527;28;20318;-81
2021/07/11 03:15:39;;;;;;;68.32;46.83;;;;;;;17.07;100.00;101064.34;4940730;28;20046;-78
2021/07/11 03:18:05;;;;;;;72.60;48.88;;;;;;;17.08;100.00;101077.69;4958872;28;20065;-81
2021/07/11 03:20:31;;;;;;;73.57;49.60;;;;;;;17.12;100.00;101068.13;4936920;28;20130;-81
2021/07/11 03:22:58;;;;;;;74.40;54.05;;;;;;;17.18;100.00;101081.94;4918386;28;20121;-80
2021/07/11 03:25:24;;;;;;;72.50;51.33;;;;;;;17.12;100.00;101080.84;4956095;28;20047;-79
2021/07/11 03:27:49;;;;;;;73.95;52.92;;;;;;;17.18;100.00;101077.34;4941142;28;20043;-79
2021/07/11 03:30:18;;;;;;;73.47;51.15;;;;;;;17.10;100.00;101075.63;4945304;28;20234;-81
2021/07/11 03:32:49;;;;;;;78.20;54.70;;;;;;;17.21;100.00;101082.34;4961636;28;20523;-81
2021/07/11 03:35:16;;;;;;;74.50;52.28;;;;;;;17.22;100.00;101081.31;4961858;28;20047;-78
2021/07/11 03:37:45;;;;;;;77.72;53.00;;;;;;;17.20;100.00;101082.53;4955849;28;20112;-80
2021/07/11 03:40:15;;;;;;;;;;;;;;;17.25;100.00;101083.63;4957145;28;20162;-81
2021/07/11 03:42:42;;;;;;;81.38;54.95;;;;;;;17.17;100.00;101086.50;4962141;28;19925;-81
2021/07/11 03:45:10;;;;;;;79.75;56.60;;;;;;;17.20;100.00;101090.69;4955718;28;20046;-81
2021/07/11 03:47:49;;;;;;;79.63;55.83;;;;;;;17.19;100.00;101099.88;4936717;28;20035;-80
2021/07/11 03:50:16;;;;;;;79.90;55.33;;;;;;;17.20;100.00;101096.09;4960707;28;20047;-82
2021/07/11 03:52:47;;;;;;;75.13;54.88;;;;;;;17.19;100.00;101092.56;4961816;28;20050;-81
2021/07/11 03:55:15;;;;;;;82.93;57.25;;;;;;;17.20;100.00;101093.38;4935284;28;20050;-80
2021/07/11 03:57:43;;;;;;;77.90;54.78;;;;;;;17.18;100.00;101088.19;4962479;28;20108;-82
2021/07/11 04:00:09;;;;;;;74.15;54.65;;;;;;;17.19;100.00;101089.03;4943696;28;20094;-80
2021/07/11 04:02:36;;;;;;;79.25;55.28;;;;;;;17.15;100.00;101088.59;4956519;28;20074;-79
2021/07/11 04:05:04;;;;;;;80.50;56.60;;;;;;;17.09;100.00;101089.34;4961760;28;20046;-80
2021/07/11 04:07:32;;;;;;;84.05;58.38;;;;;;;17.10;100.00;101091.06;4939413;28;20468;-80
2021/07/11 04:09:59;;;;;;;81.45;57.50;;;;;;;17.12;100.00;101089.81;4959900;28;20231;-80
2021/07/11 04:12:24;;;;;;;85.63;57.85;;;;;;;17.09;100.00;101083.94;4960484;28;20050;-82
2021/07/11 04:14:50;;;;;;;80.82;58.00;;;;;;;17.10;100.00;101088.34;4961945;28;20125;-82
2021/07/11 04:17:21;;;;;;;82.53;57.72;;;;;;;17.08;100.00;101091.25;4960147;28;20055;-80
2021/07/11 04:19:48;;;;;;;85.88;58.67;;;;;;;17.09;100.00;101089.34;4957394;28;20066;-81
2021/07/11 04:22:16;;;;;;;84.75;59.65;;;;;;;17.03;100.00;101084.75;4944291;28;20343;-81
2021/07/11 04:24:42;;;;;;;88.45;58.22;;;;;;;17.05;100.00;101088.09;4942693;28;20046;-81
2021/07/11 04:27:10;;;;;;;82.63;58.95;;;;;;;17.07;100.00;101083.31;4958330;28;20443;-81
2021/07/11 04:29:36;;;;;;;85.40;58.90;;;;;;;17.03;100.00;101084.75;4955706;28;20100;-80
2021/07/11 04:32:03;;;;;;;85.15;57.42;;;;;;;17.01;100.00;101094.97;4959732;28;20085;-83
2021/07/11 04:34:34;;;;;;;75.22;54.65;;;;;;;16.99;100.00;101089.72;4961182;28;20073;-80
2021/07/11 04:37:01;;;;;;;85.95;57.53;;;;;;;16.99;100.00;101083.47;4944068;28;20039;-82
2021/07/11 04:39:27;;;;;;;83.95;54.10;;;;;;;16.95;100.00;101082.22;4958234;28;20038;-80
2021/07/11 04:41:53;;;;;;;86.40;58.78;;;;;;;16.99;100.00;101095.16;4957766;28;20539;-79
2021/07/11 04:44:19;;;;;;;78.07;51.92;;;;;;;17.00;100.00;101087.84;4939333;28;20105;-82
2021/07/11 04:46:45;;;;;;;82.60;57.08;;;;;;;17.05;100.00;101096.22;4961503;28;20039;-80
2021/07/11 04:49:11;;;;;;;75.45;52.28;;;;;;;17.06;100.00;101089.75;4943631;28;20554;-83
2021/07/11 04:51:37;;;;;;;79.53;53.13;;;;;;;17.05;100.00;101093.53;4958608;28;20048;-78
2021/07/11 04:54:05;;;;;;;72.30;51.70;;;;;;;17.06;100.00;101096.06;4958714;28;20261;-80
2021/07/11 04:56:31;;;;;;;75.85;53.63;;;;;;;17.08;100.00;101093.13;4960008;28;20108;-81
2021/07/11 04:58:57;;;;;;;72.10;52.70;;;;;;;17.12;100.00;101091.69;4918814;28;20046;-82
2021/07/11 05:01:23;;;;;;;67.90;51.20;;;;;;;17.10;100.00;101094.59;4962933;28;20747;-79
2021/07/11 05:03:48;;;;;;;69.85;51.08;;;;;;;17.09;100.00;101097.50;4954598;28;20047;-81
2021/07/11 05:06:13;;;;;;;70.78;51.75;;;;;;;17.13;100.00;101101.50;4960949;28;20054;-81
2021/07/11 05:08:39;;;;;;;66.57;48.90;;;;;;;17.07;100.00;101097.72;4958989;28;20043;-80
2021/07/11 05:11:04;;;;;;;66.43;49.60;;;;;;;17.11;100.00;101106.28;4938377;28;20043;-82
2021/07/11 05:13:29;;;;;;;71.70;52.88;;;;;;;17.17;100.00;101093.78;4939377;28;20479;-81
2021/07/11 05:15:55;;;;;;;70.82;52.97;;;;;;;17.19;100.00;101095.28;4949833;28;20081;-81
2021/07/11 05:18:20;;;;;;;72.78;52.78;;;;;;;17.23;100.00;101106.53;4955624;28;20085;-80
2021/07/11 05:20:46;;;;;;;72.63;51.90;;;;;;;17.20;100.00;101105.06;4953388;28;20058;-83
2021/07/11 05:23:11;;;;;;;72.97;52.55;;;;;;;17.23;100.00;101101.97;4929881;28;20325;-80
2021/07/11 05:25:37;;;;;;;69.60;50.00;;;;;;;17.23;100.00;101104.66;4942611;28;20594;-80
2021/07/11 05:28:04;;;;;;;71.03;50.45;;;;;;;17.19;100.00;101108.81;4949766;28;20381;-82
2021/07/11 05:30:29;;;;;;;72.00;50.72;;;;;;;17.21;100.00;101104.06;4943740;28;20395;-82
2021/07/11 05:32:55;;;;;;;75.70;52.35;;;;;;;17.27;100.00;101097.81;4941051;28;20043;-79
2021/07/11 05:35:20;;;;;;;76.53;52.70;;;;;;;17.35;100.00;101094.13;4942627;28;20131;-81
2021/07/11 05:37:46;;;;;;;76.47;53.53;;;;;;;17.41;100.00;101097.91;4941750;28;20054;-79
2021/07/11 05:40:13;;;;;;;70.28;51.28;;;;;;;17.41;100.00;101093.31;4957868;28;20043;-82
2021/07/11 05:42:39;;;;;;;75.43;52.30;;;;;;;17.50;100.00;101104.81;4959729;28;20643;-79
2021/07/11 05:45:05;;;;;;;74.22;52.55;;;;;;;17.45;100.00;101104.56;4954089;28;20062;-81
2021/07/11 05:47:31;;;;;;;76.80;55.03;;;;;;;17.48;100.00;101101.47;4960035;28;20047;-82
2021/07/11 05:49:56;;;;;;;69.28;50.53;;;;;;;17.44;100.00;101098.31;4937301;28;20054;-80
2021/07/11 05:52:21;;;;;;;74.57;52.05;;;;;;;17.50;100.00;101104.81;4935879;28;20054;-81
2021/07/11 05:54:47;;;;;;;67.38;50.15;;;;;;;17.49;100.00;101103.13;4943335;28;20539;-79
2021/07/11 05:57:12;;;;;;;70.78;49.55;;;;;;;17.46;100.00;101100.81;4942335;28;20151;-82
2021/07/11 05:59:38;;;;;;;69.07;50.10;;;;;;;17.47;100.00;101102.50;4960559;28;20422;-80
2021/07/11 06:02:03;;;;;;;75.82;51.45;;;;;;;17.47;100.00;101102.50;4957517;28;20181;-81
2021/07/11 06:04:29;;;;;;;72.78;53.47;;;;;;;17.53;100.00;101104.41;4957982;28;20712;-79
2021/07/11 06:06:54;;;;;;;81.35;52.75;;;;;;;17.53;100.00;101093.56;4959697;28;21133;-82
2021/07/11 06:09:19;;;;;;;74.50;52.72;;;;;;;17.53;100.00;101091.69;4958361;28;20050;-80
2021/07/11 06:11:45;;;;;;;71.90;52.95;;;;;;;17.54;100.00;101095.22;4959818;28;20499;-82
2021/07/11 06:14:10;;;;;;;74.22;53.38;;;;;;;17.58;100.00;101104.66;4936104;28;20051;-79
2021/07/11 06:16:35;;;;;;;76.70;54.15;;;;;;;17.56;100.00;101096.69;4958381;28;20043;-81
2021/07/11 06:19:01;;;;;;;73.82;52.88;;;;;;;17.52;100.00;101095.44;4956484;28;20301;-82
2021/07/11 06:21:26;;;;;;;70.93;51.30;;;;;;;17.44;100.00;101097.50;4920117;28;20034;-81
2021/07/11 06:23:52;;;;;;;74.07;52.90;;;;;;;17.45;100.00;101100.00;4940661;28;20133;-82
2021/07/11 06:26:17;;;;;;;78.07;53.60;;;;;;;17.48;100.00;101102.28;4935028;28;20043;-81
2021/07/11 06:28:42;;;;;;;71.55;51.75;;;;;;;17.47;100.00;101103.34;4954622;28;20047;-80
2021/07/11 06:31:08;;;;;;;71.53;53.63;;;;;;;17.50;100.00;101102.09;4957594;28;20055;-81
2021/07/11 06:33:33;;;;;;;78.80;55.25;;;;;;;17.59;100.00;101104.44;4959391;28;20057;-80
2021/07/11 06:35:59;;;;;;;74.22;54.95;;;;;;;17.63;100.00;101107.56;4961443;28;20096;-80
2021/07/11 06:38:24;;;;;;;75.68;54.30;;;;;;;17.63;100.00;101102.13;4971150;28;20054;-80
2021/07/11 06:40:49;;;;;;;78.60;53.60;;;;;;;17.64;100.00;101098.41;4953543;28;20480;-83
2021/07/11 06:43:15;;;;;;;71.03;52.42;;;;;;;17.66;100.00;101101.72;4937151;28;20050;-80
2021/07/11 06:45:40;;;;;;;73.75;50.88;;;;;;;17.67;100.00;101103.41;4940072;28;20719;-81
2021/07/11 06:48:07;;;;;;;80.47;54.60;;;;;;;17.74;100.00;101095.28;4957643;28;20186;-82
2021/07/11 06:50:32;;;;;;;70.65;51.90;;;;;;;17.76;100.00;101099.47;4943368;28;20134;-82
2021/07/11 06:52:57;;;;;;;73.70;52.53;;;;;;;17.80;100.00;101098.03;4958493;28;20708;-80
2021/07/11 06:55:23;;;;;;;70.38;49.88;;;;;;;17.78;100.00;101097.44;4939313;28;20050;-82
2021/07/11 06:57:48;;;;;;;72.65;50.60;;;;;;;17.83;100.00;101102.25;4956997;28;20132;-82
2021/07/11 07:00:15;;;;;;;71.22;51.33;;;;;;;17.88;100.00;101120.63;4958010;28;20050;-81
2021/07/11 07:02:41;;;;;;;69.95;51.55;;;;;;;17.88;100.00;101109.78;4960065;28;20058;-79
2021/07/11 07:05:08;;;;;;;72.55;51.03;;;;;;;17.85;100.00;101116.44;4945417;28;20137;-80
2021/07/11 07:07:35;;;;;;;70.00;49.25;;;;;;;17.78;100.00;101115.56;4938502;28;20128;-81
2021/07/11 07:10:03;;;;;;;73.85;50.13;;;;;;;17.81;100.00;101118.75;4958850;28;20046;-82
2021/07/11 07:12:29;;;;;;;69.32;48.30;;;;;;;17.87;100.00;101119.81;4962842;28;20554;-80
2021/07/11 07:14:54;;;;;;;66.22;47.55;;;;;;;17.82;100.00;101114.16;4962917;28;20050;-80
2021/07/11 07:17:19;;;;;;;67.65;47.88;;;;;;;17.80;100.00;101114.34;4952898;28;20066;-82
2021/07/11 07:19:45;;;;;;;65.32;47.72;;;;;;;17.85;100.00;101113.72;4960140;28;20400;-80
2021/07/11 07:22:10;;;;;;;62.97;45.13;;;;;;;17.85;100.00;101112.91;4960581;28;20035;-81
2021/07/11 07:24:36;;;;;;;64.95;44.90;;;;;;;17.92;100.00;101111.03;4962113;28;20392;-79
2021/07/11 07:27:01;;;;;;;69.25;49.08;;;;;;;17.96;100.00;101106.88;4960484;28;20053;-83
2021/07/11 07:29:26;;;;;;;66.07;45.75;;;;;;;17.98;100.00;101108.34;4945277;28;20050;-82
2021/07/11 07:31:52;;;;;;;66.05;47.58;;;;;;;17.99;100.00;101106.47;4960721;28;20496;-82
2021/07/11 07:34:18;;;;;;;70.57;47.53;;;;;;;17.98;100.00;101107.50;4961065;28;20131;-81
2021/07/11 07:36:44;;;;;;;70.05;46.88;;;;;;;17.96;100.00;101115.03;4958680;28;20491;-81
2021/07/11 07:39:10;;;;;;;72.07;47.45;;;;;;;18.00;100.00;101124.41;4955924;28;20395;-81
2021/07/11 07:41:36;;;;;;;72.00;48.17;;;;;;;18.01;100.00;101115.22;4962957;28;20043;-81
2021/07/11 07:44:03;;;;;;;64.18;44.17;;;;;;;18.02;100.00;101123.19;4933923;28;20046;-79
2021/07/11 07:46:28;;;;;;;62.65;44.45;;;;;;;17.98;100.00;101131.94;4956824;28;20129;-79
2021/07/11 07:48:54;;;;;;;64.78;43.90;;;;;;;17.96;100.00;101134.88;4963107;28;20066;-82
2021/07/11 07:51:19;;;;;;;59.90;45.17;;;;;;;18.02;100.00;101135.94;4959819;28;20063;-81
2021/07/11 07:53:44;;;;;;;58.42;41.40;;;;;;;18.00;100.00;101135.28;4942174;28;20045;-82
2021/07/11 07:56:10;;;;;;;58.72;42.45;;;;;;;18.04;100.00;101142.81;4961260;28;20258;-81
2021/07/11 07:58:35;;;;;;;61.70;43.00;;;;;;;18.00;100.00;101146.16;4945235;28;20065;-81
2021/07/11 08:01:01;;;;;;;60.30;41.53;;;;;;;18.01;100.00;101148.66;4960343;28;20479;-83
2021/07/11 08:03:26;;;;;;;56.22;39.90;;;;;;;17.96;100.00;101159.31;4961052;28;20440;-83
2021/07/11 08:05:51;;;;;;;59.70;41.58;;;;;;;17.93;100.00;101164.31;4923803;28;20089;-80
2021/07/11 08:08:17;;;;;;;61.55;41.95;;;;;;;18.04;100.00;101171.88;4943801;28;20484;-80
2021/07/11 08:10:42;;;;;;;58.13;40.85;;;;;;;17.95;100.00;101164.91;4944764;28;20380;-81
2021/07/11 08:13:08;;;;;;;56.20;40.95;;;;;;;17.97;100.00;101171.81;4935923;28;20526;-80
2021/07/11 08:15:33;;;;;;;55.88;40.90;;;;;;;18.04;100.00;101164.56;4957947;28;20046;-81
2021/07/11 08:17:59;;;;;;;58.30;42.20;;;;;;;18.10;100.00;101162.91;4958686;28;20387;-80
2021/07/11 08:20:25;;;;;;;54.00;41.38;;;;;;;18.18;100.00;101168.16;4943417;28;20043;-79
2021/07/11 08:22:51;;;;;;;51.47;39.47;;;;;;;18.16;100.00;101172.09;4934801;28;20229;-82
2021/07/11 08:25:17;;;;;;;56.95;39.75;;;;;;;18.20;100.00;101174.19;4959779;28;20050;-80
2021/07/11 08:27:44;;;;;;;56.97;39.42;;;;;;;18.20;100.00;101166.03;4962210;28;20182;-81
2021/07/11 08:30:11;;;;;;;53.42;39.65;;;;;;;18.10;100.00;101176.47;4961123;28;20050;-80
2021/07/11 08:32:37;;;;;;;54.08;40.03;;;;;;;18.15;100.00;101168.53;4944190;28;20272;-80
2021/07/11 08:35:04;;;;;;;53.38;39.67;;;;;;;18.12;100.00;101178.97;4941952;28;20094;-81
2021/07/11 08:37:29;;;;;;;54.35;39.53;;;;;;;18.06;100.00;101179.78;4922700;28;20038;-82
2021/07/11 08:39:55;;;;;;;50.00;37.72;;;;;;;18.07;100.00;101184.16;4928099;28;20042;-80
2021/07/11 08:42:23;;;;;;;52.25;39.70;;;;;;;18.04;100.00;101183.56;4958307;28;20147;-81
2021/07/11 08:44:49;;;;;;;53.33;39.33;;;;;;;18.07;100.00;101192.31;4961543;28;20046;-81
2021/07/11 08:47:14;;;;;;;51.95;37.25;;;;;;;18.02;100.00;101190.22;4959448;28;20047;-83
2021/07/11 08:49:40;;;;;;;50.22;35.38;;;;;;;17.97;100.00;101195.44;4939536;28;20039;-82
2021/07/11 08:52:05;;;;;;;49.03;35.70;;;;;;;18.04;100.00;101191.69;4959840;28;20124;-80
2021/07/11 08:54:31;;;;;;;44.80;35.05;;;;;;;18.01;100.00;101197.53;4952181;28;20043;-81
2021/07/11 08:57:11;;;;;;;47.40;34.67;;;;;;;18.05;100.00;101203.41;4962141;28;20043;-82
2021/07/11 08:59:41;;;;;;;45.20;33.20;;;;;;;18.05;100.00;101206.13;4961204;28;20039;-80
2021/07/11 09:02:08;;;;;;;42.05;32.38;;;;;;;18.11;100.00;101207.19;4954978;28;20081;-82
2021/07/11 09:04:38;;;;;;;44.13;33.33;;;;;;;18.06;100.00;101209.66;4958967;28;20053;-82
2021/07/11 09:07:05;;;;;;;47.47;34.85;;;;;;;18.09;100.00;101210.09;4960781;28;20321;-81
2021/07/11 09:09:33;;;;;;;46.10;32.47;;;;;;;18.08;100.00;101213.84;4941979;28;20050;-81
2021/07/11 09:12:03;;;;;;;44.88;32.28;;;;;;;18.07;100.00;101204.03;4957917;28;20077;-83
2021/07/11 09:14:31;;;;;;;46.05;34.47;;;;;;;18.11;100.00;101216.16;4955290;28;20050;-83
2021/07/11 09:16:58;;;;;;;46.20;34.45;;;;;;;18.09;100.00;101218.22;4955289;28;20567;-84
2021/07/11 09:19:29;;;;;;;46.38;35.22;;;;;;;18.16;100.00;101216.41;4960981;28;20053;-80
2021/07/11 09:21:59;;;;;;;46.70;34.60;;;;;;;18.19;100.00;101221.41;4960674;28;20039;-82
2021/07/11 09:24:26;;;;;;;55.05;36.00;;;;;;;18.05;100.00;101216.97;4957092;28;20159;-80
2021/07/11 09:26:54;;;;;;;50.30;35.85;;;;;;;18.01;100.00;101221.97;4970327;28;20129;-78
2021/07/11 09:29:25;;;;;;;50.60;35.77;;;;;;;17.97;100.00;101225.28;4970986;28;20496;-84
2021/07/11 09:31:50;;;;;;;53.03;38.60;;;;;;;18.02;100.00;101217.38;4957658;28;20050;-84
2021/07/11 09:34:22;;;;;;;56.72;39.30;;;;;;;18.06;100.00;101215.94;4954474;28;20039;-82
2021/07/11 09:37:12;;;;;;;53.42;36.72;;;;;;;17.90;100.00;101224.44;4957649;28;20093;-84
2021/07/11 09:39:53;;;;;;;53.88;38.13;;;;;;;17.85;100.00;101219.59;4961195;28;20046;-80
2021/07/11 09:42:28;;;;;;;58.90;38.90;;;;;;;17.88;100.00;101218.38;4965530;28;20444;-83
2021/07/11 09:44:54;;;;;;;64.40;43.17;;;;;;;17.96;100.00;101221.75;4938731;28;20109;-80
2021/07/11 09:47:22;;;;;;;62.40;40.67;;;;;;;17.97;100.00;101230.72;4953577;28;20105;-81
2021/07/11 09:50:08;;;;;;;56.88;41.10;;;;;;;17.91;100.00;101234.25;4955075;28;20420;-82
2021/07/11 09:52:36;;;;;;;60.65;43.45;;;;;;;17.98;100.00;101240.53;4940469;28;21791;-79
2021/07/11 09:55:07;;;;;;;59.37;40.17;;;;;;;17.92;100.00;101235.91;4968876;28;20051;-79
2021/07/11 09:57:44;;;;;;;58.42;40.30;;;;;;;17.91;100.00;101234.25;4950341;28;20062;-83
2021/07/11 10:00:17;;;;;;;59.70;41.92;;;;;;;17.89;100.00;101231.72;4950362;28;20492;-78
2021/07/11 10:02:44;;;;;;;60.55;43.70;;;;;;;17.97;100.00;101238.88;4951216;28;20035;-80
2021/07/11 10:05:11;;;;;;;63.90;43.85;;;;;;;18.02;100.00;101229.06;4947421;28;20043;-82
2021/07/11 10:07:37;;;;;;;63.40;42.55;;;;;;;18.02;100.00;101230.97;4926609;28;20129;-78
2021/07/11 10:10:07;;;;;;;64.47;43.80;;;;;;;18.09;100.00;101225.53;4940743;28;20154;-83
2021/07/11 10:12:33;;;;;;;65.78;44.85;;;;;;;18.29;100.00;101222.91;4958727;28;20050;-81
2021/07/11 10:14:59;;;;;;;63.72;46.78;;;;;;;18.46;100.00;101222.31;4944129;28;20043;-81
2021/07/11 10:17:27;;;;;;;61.10;44.15;;;;;;;18.72;100.00;101216.06;4957874;28;20503;-82
2021/07/11 10:19:54;;;;;;;59.17;43.10;;;;;;;18.78;98.25;101217.16;4946186;28;20132;-81
2021/07/11 10:22:20;;;;;;;60.15;40.03;;;;;;;18.75;99.17;101222.19;4964100;28;20385;-82
2021/07/11 10:24:49;;;;;;;54.10;40.20;;;;;;;18.98;98.07;101211.72;4955962;28;20057;-83
2021/07/11 10:27:28;;;;;;;52.35;40.08;;;;;;;19.26;96.77;101210.66;4954141;28;20058;-82
2021/07/11 10:29:56;;;;;;;50.28;36.95;;;;;;;19.44;95.48;101213.56;4950722;28;20134;-82
2021/07/11 10:32:27;;;;;;;47.72;36.60;;;;;;;19.61;92.21;101220.22;4931653;28;20138;-82
2021/07/11 10:34:53;;;;;;;50.30;36.45;;;;;;;19.71;93.37;101218.94;4948692;28;20198;-81
2021/07/11 10:37:22;;;;;;;49.05;36.78;;;;;;;19.78;92.32;101214.34;4949030;28;20145;-82
2021/07/11 10:39:50;;;;;;;;;;;;;;;19.87;89.20;101218.50;4960984;28;20154;-83
2021/07/11 10:42:27;;;;;;;45.40;33.70;;;;;;;19.94;89.35;101223.91;4950799;28;19926;-82
2021/07/11 10:45:08;;;;;;;44.28;35.70;;;;;;;20.03;89.38;101218.00;4958356;28;20043;-84
2021/07/11 10:47:34;;;;;;;44.85;35.95;;;;;;;20.14;88.74;101223.81;4949947;28;20062;-84
2021/07/11 10:49:59;;;;;;;44.42;34.75;;;;;;;20.11;89.93;101218.81;4941245;28;20051;-83
2021/07/11 10:52:26;;;;;;;43.97;34.35;;;;;;;20.20;89.09;101221.06;4955538;28;20411;-80
2021/07/11 10:54:54;;;;;;;46.50;35.70;;;;;;;20.32;89.78;101220.41;4942194;28;20117;-81
2021/07/11 10:57:34;;;;;;;45.15;35.22;;;;;;;20.50;90.28;101223.19;4956216;28;20070;-84
2021/07/11 11:00:27;;;;;;;46.78;36.58;;;;;;;20.62;89.83;101223.38;4959420;28;20498;-84
2021/07/11 11:02:54;;;;;;;41.63;32.90;;;;;;;20.77;86.33;101223.03;4953303;28;20515;-81
2021/07/11 11:05:25;;;;;;;42.95;35.10;;;;;;;20.56;85.36;101227.81;4958458;28;20047;-80